Time;durP1;ratioP1;P1;durP2;ratioP2;P2;SDS_P1;SDS_P2;PMS_P1;PMS_P2;Temp;Humidity;BMP_temperature;BMP_pressure;BME280_temperature;BME280_humidity;BME280_pressure;Samples;Min_cycle;Max_cycle;Signal;HPM_P1;HPM_P2
2021/06/09 00:00:37;;;;;;;14.07;6.40;;;;;;;17.58;87.52;94837.03;4963732;28;20500;-82
2021/06/09 00:03:04;;;;;;;7.00;6.40;;;;;;;17.53;87.29;94836.72;5000104;28;20468;-82
2021/06/09 00:05:30;;;;;;;6.73;6.00;;;;;;;17.51;87.35;94841.38;4998197;28;20498;-83
2021/06/09 00:07:57;;;;;;;6.60;6.00;;;;;;;17.48;87.25;94839.06;4999996;28;20465;-83
2021/06/09 00:10:25;;;;;;;6.00;5.50;;;;;;;17.50;86.09;94837.06;4998612;28;20456;-83
2021/06/09 00:12:51;;;;;;;5.43;4.97;;;;;;;17.49;85.51;94838.91;4998323;28;20928;-83
2021/06/09 00:15:19;;;;;;;8.13;5.00;;;;;;;17.47;85.24;94829.47;4998031;28;20444;-82
2021/06/09 00:17:45;;;;;;;8.47;5.50;;;;;;;17.44;86.41;94829.81;4998081;28;20448;-82
2021/06/09 00:20:16;;;;;;;6.47;5.87;;;;;;;17.49;87.29;94830.09;4997829;28;20506;-82
2021/06/09 00:22:42;;;;;;;7.23;6.10;;;;;;;17.52;86.56;94832.41;4997676;28;20432;-81
2021/06/09 00:25:15;;;;;;;6.43;5.80;;;;;;;17.48;86.05;94834.59;4999191;28;20849;-82
2021/06/09 00:27:44;;;;;;;6.53;5.93;;;;;;;17.47;85.36;94840.06;4997863;28;20960;-83
2021/06/09 00:30:12;;;;;;;6.80;6.20;;;;;;;17.44;84.75;94829.81;4997827;28;20834;-83
2021/06/09 00:32:38;;;;;;;6.07;5.57;;;;;;;17.38;85.22;94826.03;4997950;28;20499;-82
2021/06/09 00:35:06;;;;;;;5.47;4.93;;;;;;;17.29;86.32;94827.88;4998764;28;20972;-82
2021/06/09 00:37:33;;;;;;;6.30;5.80;;;;;;;17.23;85.74;94828.56;4998228;28;20491;-82
2021/06/09 00:39:59;;;;;;;7.20;5.90;;;;;;;17.18;85.57;94828.25;4997843;28;20498;-83
2021/06/09 00:42:26;;;;;;;6.07;5.57;;;;;;;17.17;85.91;94829.25;4963429;28;20463;-82
2021/06/09 00:44:55;;;;;;;7.87;5.90;;;;;;;17.19;85.44;94826.44;4999417;28;20440;-83
2021/06/09 00:47:23;;;;;;;6.37;5.77;;;;;;;17.17;85.67;94831.09;4947837;28;20475;-83
2021/06/09 00:49:50;;;;;;;9.20;6.77;;;;;;;17.12;86.50;94826.31;4997649;28;20881;-82
2021/06/09 00:52:22;;;;;;;7.30;5.53;;;;;;;17.11;85.74;94823.81;4997765;28;20463;-82
2021/06/09 00:54:48;;;;;;;7.87;6.90;;;;;;;17.04;85.89;94818.34;4998337;28;20476;-82
2021/06/09 00:57:15;;;;;;;6.77;6.07;;;;;;;17.03;86.52;94827.31;4997522;28;20450;-82
2021/06/09 00:59:42;;;;;;;6.10;5.60;;;;;;;16.96;87.04;94821.03;4998312;28;20436;-82
2021/06/09 01:02:10;;;;;;;6.57;5.97;;;;;;;16.93;87.26;94829.34;4997387;28;20917;-82
2021/06/09 01:04:37;;;;;;;6.80;6.20;;;;;;;16.92;87.35;94835.63;4996020;28;21288;-83
2021/06/09 01:07:04;;;;;;;8.50;6.50;;;;;;;17.00;86.49;94827.66;4996911;28;20460;-83
2021/06/09 01:09:31;;;;;;;6.27;5.77;;;;;;;17.03;86.45;94825.47;4996891;28;20481;-83
2021/06/09 01:11:58;;;;;;;7.47;6.87;;;;;;;16.94;86.60;94826.50;4963139;28;20905;-83
2021/06/09 01:14:25;;;;;;;7.40;6.57;;;;;;;16.73;87.12;94828.88;4997304;28;20472;-83
2021/06/09 01:16:52;;;;;;;6.53;5.90;;;;;;;16.76;87.81;94830.38;4996904;28;20457;-83
2021/06/09 01:19:21;;;;;;;7.30;5.90;;;;;;;16.76;89.17;94827.72;4946679;28;20487;-82
2021/06/09 01:21:50;;;;;;;7.00;6.00;;;;;;;16.75;89.22;94821.59;4997126;28;20455;-83
2021/06/09 01:24:22;;;;;;;6.83;6.23;;;;;;;16.83;88.61;94829.53;4996767;28;20825;-83
2021/06/09 01:26:49;;;;;;;12.97;5.90;;;;;;;16.87;86.93;94837.97;4997127;28;20455;-83
2021/06/09 01:29:17;;;;;;;6.30;5.70;;;;;;;16.87;85.03;94849.41;4962754;28;20446;-83
2021/06/09 01:31:44;;;;;;;9.30;5.97;;;;;;;16.82;85.31;94840.31;4996261;28;20466;-83
2021/06/09 01:34:11;;;;;;;7.17;6.57;;;;;;;16.78;86.41;94828.41;4996091;28;20472;-83
2021/06/09 01:36:38;;;;;;;6.30;5.80;;;;;;;16.77;86.10;94832.00;4996107;28;20468;-83
2021/06/09 01:39:12;;;;;;;6.10;5.60;;;;;;;16.72;86.38;94836.00;4997109;28;20482;-83
2021/06/09 01:41:42;;;;;;;6.13;5.53;;;;;;;16.69;87.12;94838.16;4996741;28;20503;-83
2021/06/09 01:44:08;;;;;;;7.00;6.40;;;;;;;16.70;87.57;94843.28;4997940;28;20440;-83
2021/06/09 01:46:35;;;;;;;6.13;5.63;;;;;;;16.73;86.19;94840.31;4962755;28;20496;-82
2021/06/09 01:49:01;;;;;;;5.73;5.13;;;;;;;16.65;86.44;94835.00;4996997;28;20450;-82
2021/06/09 01:51:28;;;;;;;6.03;5.53;;;;;;;16.65;86.02;94842.13;4996305;28;20964;-82
2021/06/09 01:53:55;;;;;;;6.00;5.40;;;;;;;16.60;86.07;94841.81;4997992;28;20472;-83
2021/06/09 01:56:23;;;;;;;6.97;6.27;;;;;;;16.61;85.87;94843.47;4996133;28;20461;-82
2021/06/09 01:58:50;;;;;;;6.70;5.70;;;;;;;16.64;86.14;94838.66;4996158;28;20506;-83
2021/06/09 02:01:18;;;;;;;6.67;5.40;;;;;;;16.66;85.88;94844.63;4996068;28;20436;-82
2021/06/09 02:03:45;;;;;;;5.90;5.40;;;;;;;16.68;85.30;94845.28;4996506;28;20438;-83
2021/06/09 02:06:11;;;;;;;6.37;5.77;;;;;;;16.68;85.10;94845.28;4996271;28;20495;-82
2021/06/09 02:08:38;;;;;;;6.03;5.53;;;;;;;16.67;85.12;94845.47;4996202;28;20499;-82
2021/06/09 02:11:05;;;;;;;5.00;4.60;;;;;;;16.64;86.06;94849.25;4995763;28;20451;-82
2021/06/09 02:13:35;;;;;;;6.73;5.80;;;;;;;16.65;86.18;94839.47;4946858;28;20474;-82
2021/06/09 02:16:02;;;;;;;8.07;5.67;;;;;;;16.63;85.94;94844.13;4995188;28;20498;-82
2021/06/09 02:18:29;;;;;;;6.70;5.50;;;;;;;16.62;86.22;94839.81;4995433;28;20449;-82
2021/06/09 02:20:57;;;;;;;6.23;5.73;;;;;;;16.63;85.08;94844.13;4946281;28;20855;-82
2021/06/09 02:23:28;;;;;;;25.60;7.30;;;;;;;16.61;84.87;94835.50;4997835;28;20452;-82
2021/06/09 02:25:57;;;;;;;7.23;5.93;;;;;;;16.62;85.07;94845.09;4996116;28;20482;-83
2021/06/09 02:28:26;;;;;;;6.57;5.50;;;;;;;16.61;84.82;94848.75;4995640;28;20523;-83
2021/06/09 02:30:55;;;;;;;6.43;5.93;;;;;;;16.52;85.13;94855.91;4995426;28;20444;-82
2021/06/09 02:33:25;;;;;;;6.00;5.50;;;;;;;16.49;85.70;94853.59;4995051;28;20486;-82
2021/06/09 02:35:52;;;;;;;6.93;5.90;;;;;;;16.52;85.46;94861.19;4994817;28;20830;-82
2021/06/09 02:38:20;;;;;;;6.77;6.10;;;;;;;16.51;85.75;94858.72;4995848;28;20452;-82
2021/06/09 02:40:49;;;;;;;6.20;5.70;;;;;;;16.42;85.47;94850.75;4995103;28;20464;-82
2021/06/09 02:43:16;;;;;;;11.63;6.30;;;;;;;16.43;85.22;94848.94;4995328;28;20436;-83
2021/06/09 02:45:47;;;;;;;5.50;5.10;;;;;;;16.51;85.63;94856.06;4994943;28;20448;-82
2021/06/09 02:48:19;;;;;;;5.23;4.87;;;;;;;16.52;86.03;94855.91;4994793;28;20507;-82
2021/06/09 02:50:46;;;;;;;6.13;5.53;;;;;;;16.56;85.07;94851.91;4994789;28;20456;-82
2021/06/09 02:53:22;;;;;;;5.17;4.77;;;;;;;16.47;84.96;94838.81;4944474;28;20435;-82
2021/06/09 02:55:56;;;;;;;8.83;6.43;;;;;;;16.43;85.21;94846.28;4995163;28;20450;-82
2021/06/09 02:58:33;;;;;;;10.70;5.73;;;;;;;16.41;85.04;94843.81;4994524;28;20951;-82
2021/06/09 03:01:07;;;;;;;6.30;5.80;;;;;;;16.39;84.98;94860.84;4994793;28;20440;-82
2021/06/09 03:03:45;;;;;;;5.97;5.57;;;;;;;16.39;84.56;94852.91;4994690;28;20913;-82
2021/06/09 03:06:20;;;;;;;5.87;5.27;;;;;;;16.33;85.20;94856.22;4994816;28;20454;-82
2021/06/09 03:08:55;;;;;;;9.30;5.50;;;;;;;16.31;84.80;94844.97;4995352;28;20472;-83
2021/06/09 03:11:30;;;;;;;6.23;5.73;;;;;;;16.34;85.20;94852.59;4994555;28;20940;-83
2021/06/09 03:14:03;;;;;;;7.10;6.00;;;;;;;16.37;85.30;94852.25;4994510;28;20493;-82
2021/06/09 03:16:34;;;;;;;6.80;5.03;;;;;;;16.42;85.33;94844.63;4994830;28;21026;-82
2021/06/09 03:19:05;;;;;;;5.90;5.20;;;;;;;16.46;85.81;94851.25;4994250;28;20446;-82
2021/06/09 03:21:40;;;;;;;5.43;5.03;;;;;;;16.43;85.10;94851.56;4994219;28;20459;-82
2021/06/09 03:24:14;;;;;;;5.53;5.13;;;;;;;16.38;85.55;94841.47;4994292;28;20451;-82
2021/06/09 03:26:46;;;;;;;5.30;4.80;;;;;;;16.51;85.79;94846.28;4995685;28;20446;-83
2021/06/09 03:29:24;;;;;;;6.07;5.47;;;;;;;16.79;84.96;94846.78;4998506;28;20456;-83
2021/06/09 03:31:55;;;;;;;5.40;5.00;;;;;;;17.09;84.18;94847.84;4998514;28;20456;-83
2021/06/09 03:34:26;;;;;;;5.13;4.67;;;;;;;17.50;82.19;94851.16;4998707;28;20479;-83
2021/06/09 03:36:57;;;;;;;4.83;4.43;;;;;;;17.90;80.16;94863.41;4998786;28;20936;-83
2021/06/09 03:39:26;;;;;;;4.70;4.30;;;;;;;18.32;77.63;94862.13;4998338;28;20466;-84
2021/06/09 03:41:55;;;;;;;5.70;5.20;;;;;;;18.68;75.78;94872.97;4998673;28;20458;-83
2021/06/09 03:44:28;;;;;;;5.93;4.80;;;;;;;18.97;74.41;94864.22;4999805;28;20449;-85
2021/06/09 03:46:56;;;;;;;5.23;4.83;;;;;;;19.20;72.77;94858.84;4999470;28;20444;-84
2021/06/09 03:49:27;;;;;;;7.50;3.60;;;;;;;19.43;71.83;94864.06;4999979;28;20462;-84
2021/06/09 03:51:55;;;;;;;5.97;5.00;;;;;;;19.63;70.94;94861.66;4999889;28;20803;-83
2021/06/09 03:54:24;;;;;;;5.00;4.60;;;;;;;19.72;70.26;94861.38;4997863;28;20832;-84
2021/06/09 03:56:53;;;;;;;3.90;3.60;;;;;;;19.87;69.89;94860.50;5000020;28;20448;-85
2021/06/09 03:59:22;;;;;;;4.57;3.77;;;;;;;20.13;69.02;94860.81;4999959;28;20445;-85
2021/06/09 04:01:49;;;;;;;5.20;4.80;;;;;;;20.42;68.09;94855.38;4998926;28;20435;-84
2021/06/09 04:04:19;;;;;;;5.00;4.60;;;;;;;20.61;67.69;94861.09;4999059;28;20506;-85
2021/06/09 04:06:50;;;;;;;5.17;4.40;;;;;;;20.71;66.52;94861.56;4999090;28;21053;-84
2021/06/09 04:09:20;;;;;;;5.57;5.00;;;;;;;20.83;66.88;94861.88;4998172;28;20477;-83
2021/06/09 04:11:50;;;;;;;8.00;7.30;;;;;;;20.37;67.62;94863.09;4997447;28;20441;-83
2021/06/09 04:14:20;;;;;;;26.77;16.00;;;;;;;19.54;71.88;94862.78;4997886;28;21050;-85
2021/06/09 04:16:47;;;;;;;13.80;9.43;;;;;;;19.78;72.46;94860.63;4999926;28;20470;-83
2021/06/09 04:19:15;;;;;;;13.87;8.50;;;;;;;19.97;71.06;94866.38;4948393;28;20820;-82
2021/06/09 04:21:42;;;;;;;9.27;7.63;;;;;;;19.82;70.52;94870.91;4997853;28;20939;-83
2021/06/09 04:24:11;;;;;;;12.40;7.00;;;;;;;20.00;70.84;94879.31;4947571;28;20454;-80
2021/06/09 04:26:39;;;;;;;12.77;9.90;;;;;;;19.81;71.00;94870.09;4997551;28;20454;-84
2021/06/09 04:29:08;;;;;;;12.50;9.50;;;;;;;19.44;72.84;94868.38;4997509;28;20448;-83
2021/06/09 04:31:35;;;;;;;13.53;9.93;;;;;;;19.06;74.35;94873.75;4997666;28;20496;-83
2021/06/09 04:34:02;;;;;;;17.13;10.10;;;;;;;18.79;75.99;94874.38;4998383;28;20477;-84
2021/06/09 04:36:28;;;;;;;28.00;11.50;;;;;;;18.32;78.23;94875.41;4964656;28;20453;-83
2021/06/09 04:38:55;;;;;;;28.00;11.93;;;;;;;17.83;81.13;94875.72;4981628;28;20817;-83
2021/06/09 04:41:25;;;;;;;13.93;10.60;;;;;;;17.82;83.21;94875.91;4997800;28;20807;-83
2021/06/09 04:43:53;;;;;;;34.00;13.23;;;;;;;17.45;84.18;94879.22;4998286;28;20805;-80
2021/06/09 04:46:20;;;;;;;32.67;11.50;;;;;;;17.22;86.19;94874.66;4998681;28;20449;-84
2021/06/09 04:49:01;;;;;;;17.43;11.50;;;;;;;17.18;86.83;94878.66;4998507;28;20844;-85
2021/06/09 04:51:32;;;;;;;18.70;12.17;;;;;;;17.11;88.00;94879.50;4998821;28;20450;-84
2021/06/09 04:54:00;;;;;;;19.27;12.13;;;;;;;17.07;90.35;94870.25;4965521;28;20570;-84
2021/06/09 04:56:33;;;;;;;12.63;11.10;;;;;;;17.11;91.09;94877.69;4997722;28;20455;-83
2021/06/09 04:59:03;;;;;;;15.63;11.60;;;;;;;16.99;89.35;94873.72;4998840;28;20451;-85
2021/06/09 05:01:29;;;;;;;17.70;12.40;;;;;;;16.98;89.50;94882.66;4998977;28;20488;-84
2021/06/09 05:03:56;;;;;;;12.37;10.60;;;;;;;16.99;89.46;94877.19;4999805;28;20454;-84
2021/06/09 05:06:23;;;;;;;14.80;10.23;;;;;;;17.03;88.60;94883.81;4997883;28;20452;-84
2021/06/09 05:08:50;;;;;;;13.07;11.43;;;;;;;17.09;90.71;94874.38;5007107;28;20486;-83
2021/06/09 05:11:22;;;;;;;14.40;11.00;;;;;;;17.12;91.01;94884.63;5018398;28;20862;-83
2021/06/09 05:13:53;;;;;;;20.83;12.03;;;;;;;17.13;89.68;94880.97;5018690;28;20532;-83
2021/06/09 05:16:22;;;;;;;18.03;12.20;;;;;;;17.15;91.08;94889.59;5017653;28;20508;-84
2021/06/09 05:18:54;;;;;;;14.50;9.63;;;;;;;17.53;92.75;94881.81;5017915;28;20806;-85
2021/06/09 05:21:26;;;;;;;16.30;12.80;;;;;;;17.15;91.38;94880.81;4965417;28;20436;-81
2021/06/09 05:23:54;;;;;;;16.63;13.07;;;;;;;17.06;92.11;94881.81;5016431;28;20466;-79
2021/06/09 05:26:23;;;;;;;14.73;11.17;;;;;;;17.20;91.41;94884.59;5015601;28;20428;-78
2021/06/09 05:28:54;;;;;;;15.80;12.17;;;;;;;16.98;91.31;94880.00;5016304;28;20454;-81
2021/06/09 05:31:21;;;;;;;15.87;12.80;;;;;;;16.89;93.64;94878.38;5015267;28;20951;-81
2021/06/09 05:33:49;;;;;;;19.87;13.90;;;;;;;17.07;92.90;94886.16;5016466;28;20474;-82
2021/06/09 05:36:17;;;;;;;20.23;13.60;;;;;;;17.19;92.90;94884.78;5016807;28;20456;-82
2021/06/09 05:38:44;;;;;;;16.37;11.40;;;;;;;17.77;92.58;94884.41;5015577;28;20459;-81
2021/06/09 05:41:11;;;;;;;14.63;11.70;;;;;;;18.39;85.00;94884.31;5015294;28;20495;-82
2021/06/09 05:43:41;;;;;;;17.23;12.20;;;;;;;18.98;83.07;94892.47;5015272;28;20438;-82
2021/06/09 05:46:10;;;;;;;14.63;12.05;;;;;;;19.19;81.32;94903.22;5016055;28;20443;-82
2021/06/09 05:48:40;;;;;;;14.77;11.63;;;;;;;19.62;80.91;94892.78;5014968;28;20247;-82
2021/06/09 05:51:09;;;;;;;13.60;10.10;;;;;;;20.25;78.92;94893.94;5017829;28;20436;-82
2021/06/09 05:53:36;;;;;;;13.37;11.93;;;;;;;20.69;75.81;94900.94;5015279;28;20888;-82
2021/06/09 05:56:03;;;;;;;13.93;10.67;;;;;;;20.95;74.47;94901.16;5015792;28;20459;-82
2021/06/09 05:58:29;;;;;;;12.10;10.90;;;;;;;21.22;72.64;94898.69;5015773;28;20438;-82
2021/06/09 06:01:00;;;;;;;12.83;10.70;;;;;;;21.54;72.24;94903.44;5015088;28;20437;-82
2021/06/09 06:03:29;;;;;;;11.67;10.47;;;;;;;21.81;70.13;94898.22;5015138;28;20436;-82
2021/06/09 06:05:57;;;;;;;11.70;10.47;;;;;;;22.07;69.10;94892.19;5014978;28;20452;-82
2021/06/09 06:08:26;;;;;;;14.20;10.57;;;;;;;22.48;67.02;94894.75;5014893;28;20469;-83
2021/06/09 06:10:53;;;;;;;14.90;11.17;;;;;;;22.10;68.46;94892.63;5015384;28;20454;-82
2021/06/09 06:13:20;;;;;;;15.43;11.30;;;;;;;21.58;69.04;94902.03;4983414;28;20453;-82
2021/06/09 06:15:47;;;;;;;12.63;11.13;;;;;;;21.65;69.45;94891.38;5015237;28;20553;-84
2021/06/09 06:18:14;;;;;;;14.37;11.50;;;;;;;21.13;70.56;94874.00;4982029;28;20500;-83
2021/06/09 06:20:44;;;;;;;12.70;11.43;;;;;;;20.98;71.70;94879.44;4980997;28;20451;-83
2021/06/09 06:23:14;;;;;;;19.40;11.80;;;;;;;21.08;72.73;94876.41;5014860;28;20461;-83
2021/06/09 06:25:44;;;;;;;12.47;10.47;;;;;;;21.58;72.07;94877.97;5015725;28;20444;-84
2021/06/09 06:28:11;;;;;;;15.67;11.80;;;;;;;22.04;69.42;94887.25;5015201;28;20477;-83
2021/06/09 06:30:37;;;;;;;13.83;11.03;;;;;;;22.39;67.65;94888.78;5014911;28;20824;-84
2021/06/09 06:33:06;;;;;;;16.50;10.57;;;;;;;22.69;67.97;94883.88;5014342;28;20452;-84
2021/06/09 06:35:33;;;;;;;12.90;11.07;;;;;;;22.71;65.14;94887.19;5015660;28;20478;-84
2021/06/09 06:38:04;;;;;;;14.70;12.00;;;;;;;22.81;65.52;94892.97;5015626;28;20446;-83
2021/06/09 06:40:32;;;;;;;12.43;11.23;;;;;;;22.68;66.00;94887.59;5015009;28;20977;-84
2021/06/09 06:42:59;;;;;;;14.23;10.80;;;;;;;22.77;67.14;94883.69;5015076;28;20862;-84
2021/06/09 06:45:26;;;;;;;12.83;10.80;;;;;;;22.88;66.70;94881.47;5015214;28;20460;-85
2021/06/09 06:47:54;;;;;;;15.30;12.97;;;;;;;23.18;67.42;94867.44;5015501;28;20519;-83
2021/06/09 06:50:22;;;;;;;15.33;11.57;;;;;;;23.35;64.48;94883.88;5015442;28;20813;-83
2021/06/09 06:52:50;;;;;;;17.50;11.17;;;;;;;23.16;64.65;94876.72;4965008;28;21172;-84
2021/06/09 06:55:22;;;;;;;13.87;10.90;;;;;;;23.28;64.76;94882.25;5021282;28;20480;-83
2021/06/09 06:57:50;;;;;;;10.97;9.97;;;;;;;23.52;64.89;94873.56;5028951;28;20442;-83
2021/06/09 07:00:20;;;;;;;13.17;10.60;;;;;;;23.54;62.63;94884.06;5032899;28;20470;-83
2021/06/09 07:02:48;;;;;;;13.63;11.63;;;;;;;23.49;63.07;94879.34;5032172;28;20522;-83
2021/06/09 07:05:17;;;;;;;14.70;12.33;;;;;;;23.81;62.86;94877.63;5033169;28;20441;-83
2021/06/09 07:07:44;;;;;;;16.07;14.00;;;;;;;23.91;63.48;94882.53;5030203;28;20527;-84
2021/06/09 07:10:13;;;;;;;13.60;12.17;;;;;;;24.05;62.39;94878.75;4985093;28;20473;-84
2021/06/09 07:12:43;;;;;;;12.63;11.33;;;;;;;23.71;62.79;94870.03;4994719;28;20430;-84
2021/06/09 07:15:11;;;;;;;13.63;12.27;;;;;;;23.86;62.78;94871.63;4994533;28;20480;-84
2021/06/09 07:17:40;;;;;;;13.17;11.70;;;;;;;24.13;62.02;94875.81;4994842;28;20448;-84
2021/06/09 07:20:10;;;;;;;14.00;11.23;;;;;;;24.32;62.30;94877.63;4995450;28;20802;-83
2021/06/09 07:22:37;;;;;;;11.80;10.30;;;;;;;24.55;63.16;94878.91;4996119;28;20810;-83
2021/06/09 07:25:04;;;;;;;15.13;13.40;;;;;;;24.54;60.57;94877.25;4996624;28;20442;-84
2021/06/09 07:27:34;;;;;;;17.00;12.27;;;;;;;24.90;61.00;94879.28;4999021;28;20456;-83
2021/06/09 07:30:05;;;;;;;15.10;11.50;;;;;;;25.08;59.71;94879.38;4997560;28;20475;-83
2021/06/09 07:32:33;;;;;;;14.30;10.43;;;;;;;25.42;60.34;94877.19;4994681;28;20448;-83
2021/06/09 07:34:59;;;;;;;19.00;12.50;;;;;;;25.29;58.11;94875.47;4997193;28;20478;-83
2021/06/09 07:37:27;;;;;;;16.30;10.70;;;;;;;25.21;59.63;94870.38;4996526;28;20448;-84
2021/06/09 07:39:58;;;;;;;14.23;11.80;;;;;;;25.51;58.15;94874.00;4995098;28;20474;-82
2021/06/09 07:42:28;;;;;;;13.20;10.97;;;;;;;25.27;58.54;94867.63;4996553;28;20432;-84
2021/06/09 07:44:58;;;;;;;14.40;11.87;;;;;;;24.68;59.35;94862.72;4996406;28;20460;-83
2021/06/09 07:47:28;;;;;;;11.37;10.20;;;;;;;24.90;60.32;94868.56;4997876;28;20551;-84
2021/06/09 07:49:58;;;;;;;12.87;10.70;;;;;;;24.81;59.79;94861.78;4996068;28;20461;-84
2021/06/09 07:52:26;;;;;;;14.80;10.40;;;;;;;24.84;60.47;94854.13;4999507;28;20452;-82
2021/06/09 07:54:54;;;;;;;12.23;9.57;;;;;;;25.11;59.36;94862.00;4999121;28;20463;-82
2021/06/09 07:57:24;;;;;;;13.93;10.90;;;;;;;24.96;58.23;94859.63;5000257;28;20462;-83
2021/06/09 07:59:51;;;;;;;11.07;9.40;;;;;;;25.10;59.92;94860.34;4997878;28;20438;-82
2021/06/09 08:02:19;;;;;;;12.27;10.37;;;;;;;25.33;60.97;94861.38;4999860;28;20451;-82
2021/06/09 08:04:47;;;;;;;16.30;10.20;;;;;;;25.28;59.58;94869.28;4996379;28;20908;-82
2021/06/09 08:07:14;;;;;;;9.70;8.80;;;;;;;25.42;58.30;94866.44;4998908;28;20455;-83
2021/06/09 08:09:41;;;;;;;10.33;9.10;;;;;;;25.01;57.37;94860.63;5012863;28;20478;-83
2021/06/09 08:12:08;;;;;;;10.53;9.33;;;;;;;25.29;59.20;94865.53;5018997;28;20961;-83
2021/06/09 08:14:35;;;;;;;12.67;9.23;;;;;;;25.43;59.32;94868.91;5019715;28;20842;-82
2021/06/09 08:17:02;;;;;;;11.73;8.30;;;;;;;25.40;59.52;94865.84;5019420;28;20939;-82
2021/06/09 08:19:28;;;;;;;13.23;8.97;;;;;;;25.51;58.02;94865.94;5021810;28;20439;-84
2021/06/09 08:21:56;;;;;;;10.43;8.27;;;;;;;25.72;57.60;94862.00;5018139;28;20450;-82
2021/06/09 08:24:23;;;;;;;13.67;9.13;;;;;;;25.80;58.04;94863.59;5019429;28;20953;-82
2021/06/09 08:26:50;;;;;;;14.80;8.63;;;;;;;25.96;55.93;94860.28;5017988;28;20457;-83
2021/06/09 08:29:17;;;;;;;16.30;9.10;;;;;;;26.19;56.35;94854.19;5017769;28;20450;-83
2021/06/09 08:31:43;;;;;;;10.07;9.07;;;;;;;26.19;53.94;94856.88;5018050;28;20435;-83
2021/06/09 08:34:10;;;;;;;9.70;8.37;;;;;;;26.15;55.46;94847.63;5017446;28;20483;-83
2021/06/09 08:36:39;;;;;;;10.70;7.47;;;;;;;26.03;56.83;94855.66;5019465;28;20448;-84
2021/06/09 08:39:07;;;;;;;10.60;7.70;;;;;;;26.10;54.24;94851.00;4969973;28;20435;-83
2021/06/09 08:41:37;;;;;;;9.70;7.53;;;;;;;26.29;52.75;94848.25;5021128;28;20490;-83
2021/06/09 08:44:04;;;;;;;6.83;6.17;;;;;;;26.35;53.46;94848.22;5021597;28;20932;-83
2021/06/09 08:46:33;;;;;;;8.73;7.40;;;;;;;26.55;52.84;94847.91;5021325;28;20447;-84
2021/06/09 08:49:01;;;;;;;8.40;7.40;;;;;;;26.63;52.22;94850.31;5019512;28;20456;-83
2021/06/09 08:51:29;;;;;;;7.60;6.90;;;;;;;26.68;52.65;94846.91;5019805;28;20439;-84
2021/06/09 08:53:56;;;;;;;14.33;7.00;;;;;;;26.67;51.12;94856.03;5019434;28;20791;-84
2021/06/09 08:56:25;;;;;;;14.03;7.23;;;;;;;26.30;52.27;94847.22;5020360;28;20451;-83
2021/06/09 08:58:52;;;;;;;15.17;7.20;;;;;;;26.41;52.22;94846.47;5018115;28;20432;-83
2021/06/09 09:01:19;;;;;;;6.37;5.77;;;;;;;26.23;52.16;94841.94;5020272;28;20486;-83
2021/06/09 09:03:48;;;;;;;9.77;5.37;;;;;;;26.26;51.42;94849.53;5019504;28;20451;-83
2021/06/09 09:06:15;;;;;;;7.87;5.83;;;;;;;26.34;50.40;94846.59;5018789;28;20498;-82
2021/06/09 09:08:42;;;;;;;5.63;5.27;;;;;;;26.46;48.13;94843.91;5016648;28;20502;-82
2021/06/09 09:11:09;;;;;;;9.77;8.77;;;;;;;26.49;47.61;94841.59;5019267;28;20451;-82
2021/06/09 09:13:37;;;;;;;5.93;5.37;;;;;;;26.44;49.22;94841.47;5019006;28;20447;-83
2021/06/09 09:16:04;;;;;;;6.70;5.20;;;;;;;26.24;49.94;94835.50;5019654;28;20510;-83
2021/06/09 09:18:40;;;;;;;5.20;4.80;;;;;;;26.21;51.89;94847.53;5016885;28;20462;-84
2021/06/09 09:21:11;;;;;;;5.03;4.63;;;;;;;26.32;50.09;94847.84;5019987;28;20947;-83
2021/06/09 09:23:38;;;;;;;5.20;4.70;;;;;;;26.45;51.22;94845.78;5018011;28;20516;-84
2021/06/09 09:26:26;;;;;;;4.53;4.13;;;;;;;26.57;50.30;94839.59;5018976;28;20472;-84
2021/06/09 09:29:12;;;;;;;5.30;4.90;;;;;;;26.50;51.40;94827.06;5020376;28;20462;-84
2021/06/09 09:31:48;;;;;;;4.53;4.20;;;;;;;25.88;49.88;94836.41;4967963;28;20440;-81
2021/06/09 09:34:39;;;;;;;4.43;4.13;;;;;;;25.78;47.98;94833.44;5018693;28;20487;-82
2021/06/09 09:37:11;;;;;;;5.07;3.80;;;;;;;25.59;47.95;94829.88;5018070;28;20455;-82
2021/06/09 09:39:40;;;;;;;4.93;4.10;;;;;;;25.35;48.39;94830.75;4957924;29;20474;-82
2021/06/09 09:42:30;;;;;;;4.37;3.80;;;;;;;25.60;50.04;94823.47;4957575;29;20456;-82
2021/06/09 09:45:14;;;;;;;4.40;3.70;;;;;;;25.82;48.49;94815.78;4959613;29;20490;-84
2021/06/09 09:47:41;;;;;;;9.93;5.67;;;;;;;25.98;49.41;94814.34;4943641;29;20455;-83
2021/06/09 09:50:30;;;;;;;7.03;4.33;;;;;;;26.17;49.50;94818.63;4973151;28;20494;-84
2021/06/09 09:53:47;;;;;;;4.30;3.90;;;;;;;26.29;47.15;94814.09;4954007;28;20447;-82
2021/06/09 09:59:30;;;;;;;7.07;4.60;;;;;;;26.48;46.11;94804.97;5092708;26;20495;-83
2021/06/09 10:02:11;;;;;;;4.50;4.10;;;;;;;26.44;46.44;94803.78;5095627;28;20476;-83
2021/06/09 10:04:39;;;;;;;2.93;2.40;;;;;;;25.99;39.04;94805.22;5090009;28;20476;-84
2021/06/09 10:07:09;;;;;;;3.60;3.33;;;;;;;25.21;42.23;94798.69;5094986;28;20453;-81
2021/06/09 10:09:42;;;;;;;3.63;2.87;;;;;;;25.47;46.35;94799.44;5092904;28;20429;-84
2021/06/09 10:12:13;;;;;;;4.10;3.63;;;;;;;25.24;45.21;94792.03;5090775;28;20474;-84
2021/06/09 10:15:04;;;;;;;4.30;3.90;;;;;;;25.42;46.11;94783.16;5163559;23;20593;-83
2021/06/09 10:18:18;;;;;;;4.00;3.70;;;;;;;25.60;47.13;94781.28;4997519;28;20452;-83
2021/06/09 10:20:48;;;;;;;3.50;3.20;;;;;;;25.56;45.59;94780.09;4993421;28;20457;-84
2021/06/09 10:23:37;;;;;;;6.83;3.20;;;;;;;25.39;42.34;94786.28;4977002;28;20454;-84
2021/06/09 10:26:08;;;;;;;3.20;2.70;;;;;;;25.28;40.26;94780.63;4931436;28;20503;-84
2021/06/09 10:34:46;;;;;;;3.30;2.80;;;;;;;25.81;42.02;94779.22;4972402;28;20463;-82
2021/06/09 10:37:15;;;;;;;4.37;3.40;;;;;;;25.89;42.35;94768.94;4940629;29;20528;-84
2021/06/09 10:39:44;;;;;;;4.20;3.80;;;;;;;26.02;43.86;94770.66;4939826;29;20489;-84
2021/06/09 10:42:12;;;;;;;7.70;3.90;;;;;;;26.05;43.72;94766.69;4941153;29;20443;-84
2021/06/09 10:44:41;;;;;;;4.20;3.60;;;;;;;26.06;43.77;94763.75;4942054;29;20455;-83
2021/06/09 10:47:17;;;;;;;4.30;3.83;;;;;;;26.15;43.24;94756.19;4941164;29;20455;-83
2021/06/09 10:49:45;;;;;;;3.57;3.20;;;;;;;25.92;42.25;94763.09;4976398;28;20483;-84
2021/06/09 10:52:14;;;;;;;3.53;3.33;;;;;;;26.00;41.51;94747.69;4976335;28;20962;-84
2021/06/09 10:54:41;;;;;;;9.53;3.93;;;;;;;25.98;42.82;94758.69;4975519;28;20488;-84
2021/06/09 10:57:09;;;;;;;3.80;3.50;;;;;;;26.06;43.22;94750.31;4975219;28;20445;-84
2021/06/09 10:59:36;;;;;;;4.40;4.00;;;;;;;26.15;42.85;94746.25;4975673;28;20453;-80
2021/06/09 11:02:05;;;;;;;7.10;3.90;;;;;;;26.25;44.11;94742.97;4974587;28;20961;-81
2021/06/09 11:04:37;;;;;;;3.90;3.60;;;;;;;26.36;43.46;94734.16;4975660;28;20496;-83
2021/06/09 11:07:06;;;;;;;4.63;4.23;;;;;;;26.15;42.82;94743.53;5015423;28;20440;-81
2021/06/09 11:20:47;;;;;;;3.37;3.07;;;;;;;26.03;43.90;94723.06;5012113;28;20628;-82
2021/06/09 11:23:26;;;;;;;3.33;3.13;;;;;;;26.05;43.44;94710.19;4995464;28;20520;-82
2021/06/09 11:25:53;;;;;;;3.20;3.00;;;;;;;25.84;43.80;94715.03;4946294;28;20456;-82
2021/06/09 11:28:21;;;;;;;3.90;3.27;;;;;;;25.79;43.63;94714.09;4995778;28;20452;-82
2021/06/09 11:30:56;;;;;;;4.13;3.73;;;;;;;25.73;43.68;94720.34;4995378;28;20455;-81
2021/06/09 11:33:41;;;;;;;4.20;3.90;;;;;;;25.68;45.44;94717.53;4995415;28;20455;-82
2021/06/09 11:36:27;;;;;;;4.30;3.80;;;;;;;25.57;45.22;94711.03;4994828;28;20471;-82
2021/06/09 11:38:57;;;;;;;3.77;3.47;;;;;;;25.69;47.03;94714.63;4996542;28;20514;-82
2021/06/09 11:41:26;;;;;;;4.20;3.90;;;;;;;25.67;45.55;94708.66;4995234;28;20440;-82
2021/06/09 11:43:55;;;;;;;4.03;3.73;;;;;;;25.81;44.69;94710.13;4945133;28;20455;-82
2021/06/09 11:46:24;;;;;;;3.80;3.50;;;;;;;25.93;46.19;94702.91;4995181;28;20807;-82
2021/06/09 11:48:56;;;;;;;4.47;4.03;;;;;;;26.12;45.98;94708.22;4996662;28;20955;-82
2021/06/09 11:51:31;;;;;;;5.10;3.93;;;;;;;26.27;45.45;94697.00;4964919;28;20456;-82
2021/06/09 11:54:00;;;;;;;3.60;3.40;;;;;;;26.30;45.48;94705.44;4949168;28;20443;-82
2021/06/09 11:56:29;;;;;;;6.07;3.50;;;;;;;26.23;45.52;94696.66;4948402;28;20540;-82
2021/06/09 11:58:58;;;;;;;3.83;3.57;;;;;;;26.35;45.99;94689.47;4998171;28;20447;-82